createdAt,value
2022-11-10T00:00:25.356Z,101068.31
2022-11-10T00:03:13.125Z,101071.16
2022-11-10T00:06:02.755Z,101070.38
2022-11-10T00:08:50.361Z,101081.34
2022-11-10T00:11:38.011Z,101081.84
2022-11-10T00:14:42.889Z,101087.22
2022-11-10T00:17:32.159Z,101092.34
2022-11-10T00:20:19.924Z,101092.34
2022-11-10T00:23:07.851Z,101101.06
2022-11-10T00:25:55.403Z,101100.22
2022-11-10T00:28:43.248Z,101108.47
2022-11-10T00:31:30.705Z,101108.19
2022-11-10T00:34:19.660Z,101111.34
2022-11-10T00:37:07.505Z,101112.75
2022-11-10T00:39:54.886Z,101123.41
2022-11-10T00:42:42.760Z,101118.50
2022-11-10T00:45:30.663Z,101125.53
2022-11-10T00:48:18.115Z,101138.19
2022-11-10T00:51:07.145Z,101134.38
2022-11-10T00:53:54.940Z,101130.69
2022-11-10T00:56:42.708Z,101132.47
2022-11-10T00:59:30.495Z,101143.22
2022-11-10T01:02:18.152Z,101151.41
2022-11-10T01:05:06.054Z,101147.81
2022-11-10T01:07:55.176Z,101148.53
2022-11-10T01:10:42.980Z,101149.72
2022-11-10T01:13:30.789Z,101169.97
2022-11-10T01:16:20.776Z,101167.38
2022-11-10T01:19:09.451Z,101159.59
2022-11-10T01:21:58.024Z,101180.56
2022-11-10T01:24:46.917Z,101180.81
2022-11-10T01:27:34.521Z,101183.41
2022-11-10T01:30:22.145Z,101190.19
2022-11-10T01:33:09.754Z,101199.22
2022-11-10T01:35:57.562Z,101204.69
2022-11-10T01:38:45.762Z,101203.19
2022-11-10T01:41:34.725Z,101213.28
2022-11-10T01:44:24.237Z,101197.03
2022-11-10T01:47:12.142Z,101205.97
2022-11-10T01:49:59.711Z,101205.03
2022-11-10T01:52:51.275Z,101205.38
2022-11-10T01:55:42.132Z,101210.56
2022-11-10T01:58:39.879Z,101206.78
2022-11-10T02:01:27.828Z,101214.88
2022-11-10T02:04:18.022Z,101213.41
2022-11-10T02:07:06.969Z,101221.03
2022-11-10T02:09:55.033Z,101233.41
2022-11-10T02:12:42.751Z,101232.91
2022-11-10T02:15:31.879Z,101233.97
2022-11-10T02:18:19.673Z,101236.25
2022-11-10T02:21:09.282Z,101247.19
2022-11-10T02:23:57.168Z,101239.31
2022-11-10T02:26:49.544Z,101243.53
2022-11-10T02:29:37.075Z,101249.84
2022-11-10T02:32:24.757Z,101253.34
2022-11-10T02:35:12.698Z,101241.81
2022-11-10T02:38:01.614Z,101257.84
2022-11-10T02:40:50.834Z,101265.03
2022-11-10T02:43:39.445Z,101267.03
2022-11-10T02:46:27.321Z,101271.88
2022-11-10T02:49:14.854Z,101274.31
2022-11-10T02:52:02.538Z,101274.69
2022-11-10T02:54:51.354Z,101269.13
2022-11-10T02:57:39.465Z,101274.50
2022-11-10T03:00:27.722Z,101267.97
2022-11-10T03:03:15.611Z,101276.91
2022-11-10T03:06:03.312Z,101285.69
2022-11-10T03:08:50.927Z,101281.00
2022-11-10T03:11:39.822Z,101277.84
2022-11-10T03:14:27.631Z,101294.84
2022-11-10T03:17:15.323Z,101291.78
2022-11-10T03:20:03.015Z,101295.78
2022-11-10T03:22:50.862Z,101299.44
2022-11-10T03:25:38.649Z,101307.06
2022-11-10T03:28:27.796Z,101311.69
2022-11-10T03:31:15.422Z,101321.41
2022-11-10T03:34:02.958Z,101319.44
2022-11-10T03:36:50.706Z,101318.31
2022-11-10T03:39:38.172Z,101327.69
2022-11-10T03:42:25.723Z,101331.06
2022-11-10T03:45:16.788Z,101324.69
2022-11-10T03:48:04.539Z,101322.16
2022-11-10T03:50:52.329Z,101325.28
2022-11-10T03:53:39.859Z,101322.69
2022-11-10T03:56:27.680Z,101327.72
2022-11-10T03:59:15.387Z,101330.13
2022-11-10T04:02:04.524Z,101334.91
2022-11-10T04:05:09.558Z,101340.28
2022-11-10T04:08:19.229Z,101341.91
2022-11-10T04:11:07.062Z,101349.25
2022-11-10T04:14:12.068Z,101361.19
2022-11-10T04:17:00.177Z,101369.84
2022-11-10T04:19:49.525Z,101378.72
2022-11-10T04:22:54.531Z,101383.44
2022-11-10T04:26:05.302Z,101395.47
2022-11-10T04:28:55.436Z,101396.19
2022-11-10T04:31:43.695Z,101389.09
2022-11-10T04:34:31.080Z,101398.19
2022-11-10T04:37:19.973Z,101398.41
2022-11-10T04:40:09.052Z,101398.81
2022-11-10T04:42:56.883Z,101392.44
2022-11-10T04:45:44.981Z,101395.47
2022-11-10T04:48:33.602Z,101404.19
2022-11-10T04:51:22.479Z,101399.97
2022-11-10T04:54:13.128Z,101400.50
2022-11-10T04:57:00.747Z,101403.97
2022-11-10T04:59:48.293Z,101412.34
2022-11-10T05:02:39.622Z,101418.59
2022-11-10T05:05:27.965Z,101424.91
2022-11-10T05:08:16.326Z,101430.66
2022-11-10T05:11:05.772Z,101434.97
2022-11-10T05:13:53.295Z,101436.41
2022-11-10T05:16:40.713Z,101428.44
2022-11-10T05:19:28.341Z,101434.44
2022-11-10T05:22:16.011Z,101437.75
2022-11-10T05:25:03.823Z,101445.50
2022-11-10T05:27:52.752Z,101451.28
2022-11-10T05:30:41.239Z,101449.28
2022-11-10T05:33:28.868Z,101452.84
2022-11-10T05:36:16.345Z,101451.91
2022-11-10T05:39:03.766Z,101457.22
2022-11-10T05:41:51.255Z,101466.78
2022-11-10T05:44:40.120Z,101463.63
2022-11-10T05:47:27.838Z,101455.56
2022-11-10T05:50:15.746Z,101465.50
2022-11-10T05:53:03.705Z,101466.25
2022-11-10T05:55:51.316Z,101475.97
2022-11-10T05:58:38.772Z,101484.25
2022-11-10T06:01:27.861Z,101485.19
2022-11-10T06:04:15.571Z,101491.34
2022-11-10T06:07:03.448Z,101483.72
2022-11-10T06:09:50.834Z,101499.72
2022-11-10T06:12:38.399Z,101501.19
2022-11-10T06:15:26.858Z,101511.78
2022-11-10T06:18:16.038Z,101525.38
2022-11-10T06:21:03.776Z,101534.41
2022-11-10T06:23:51.269Z,101539.94
2022-11-10T06:26:39.002Z,101545.16
2022-11-10T06:29:27.185Z,101553.47
2022-11-10T06:32:14.786Z,101552.63
2022-11-10T06:35:03.773Z,101558.06
2022-11-10T06:37:59.545Z,101574.78
2022-11-10T06:40:47.231Z,101582.75
2022-11-10T06:43:34.885Z,101584.63
2022-11-10T06:46:22.574Z,101579.84
2022-11-10T06:49:10.033Z,101594.78
2022-11-10T06:51:58.959Z,101600.88
2022-11-10T06:54:46.949Z,101603.69
2022-11-10T06:57:39.898Z,101604.72
2022-11-10T07:00:28.813Z,101605.47
2022-11-10T07:03:17.380Z,101609.66
2022-11-10T07:06:05.522Z,101614.16
2022-11-10T07:08:54.449Z,101622.09
2022-11-10T07:11:43.207Z,101635.19
2022-11-10T07:14:31.102Z,101633.13
2022-11-10T07:17:18.455Z,101638.75
2022-11-10T07:20:06.616Z,101643.88
2022-11-10T07:23:00.227Z,101642.31
2022-11-10T07:25:49.474Z,101656.25
2022-11-10T07:28:37.300Z,101665.75
2022-11-10T07:31:24.808Z,101664.19
2022-11-10T07:34:12.374Z,101667.34
2022-11-10T07:37:00.097Z,101660.97
2022-11-10T07:39:47.765Z,101664.09
2022-11-10T07:42:41.104Z,101680.28
2022-11-10T07:45:29.353Z,101682.47
2022-11-10T07:48:17.597Z,101690.13
2022-11-10T07:51:05.244Z,101679.94
2022-11-10T07:53:53.083Z,101682.19
2022-11-10T07:56:41.152Z,101685.13
2022-11-10T07:59:29.893Z,101700.28
2022-11-10T08:02:17.431Z,101694.13
2022-11-10T08:05:05.247Z,101698.84
2022-11-10T08:07:54.846Z,101706.28
2022-11-10T08:10:43.202Z,101694.13
2022-11-10T08:13:30.637Z,101700.84
2022-11-10T08:16:19.748Z,101718.44
2022-11-10T08:19:07.255Z,101718.47
2022-11-10T08:21:54.907Z,101721.94
2022-11-10T08:24:42.495Z,101734.75
2022-11-10T08:27:30.427Z,101719.13
2022-11-10T08:30:18.575Z,101730.84
2022-11-10T08:33:09.382Z,101723.97
2022-11-10T08:35:56.890Z,101723.75
2022-11-10T08:38:44.314Z,101736.97
2022-11-10T08:41:31.953Z,101739.59
2022-11-10T08:44:21.042Z,101746.34
2022-11-10T08:47:08.934Z,101750.00
2022-11-10T08:49:57.925Z,101739.09
2022-11-10T08:52:45.813Z,101755.25
2022-11-10T08:55:33.749Z,101756.19
2022-11-10T08:58:22.728Z,101754.84
2022-11-10T09:01:11.512Z,101755.25
2022-11-10T09:03:59.335Z,101754.63
2022-11-10T09:06:48.312Z,101742.97
2022-11-10T09:09:36.128Z,101757.50
2022-11-10T09:12:23.844Z,101758.78
2022-11-10T09:15:12.613Z,101758.94
2022-11-10T09:18:00.738Z,101765.88
2022-11-10T09:20:48.301Z,101768.56
2022-11-10T09:23:37.139Z,101769.81
2022-11-10T09:26:24.831Z,101773.25
2022-11-10T09:29:12.360Z,101786.13
2022-11-10T09:32:00.298Z,101787.03
2022-11-10T09:34:52.763Z,101784.38
2022-11-10T09:37:41.141Z,101791.31
2022-11-10T09:40:44.454Z,101780.84
2022-11-10T09:43:39.507Z,101802.78
2022-11-10T09:46:30.410Z,101796.38
2022-11-10T09:49:29.133Z,101806.13
2022-11-10T09:52:18.970Z,101807.94
2022-11-10T09:55:18.102Z,101807.19
2022-11-10T09:58:09.368Z,101814.97
2022-11-10T10:01:05.138Z,101813.91
2022-11-10T10:04:01.642Z,101808.69
2022-11-10T10:07:10.566Z,101828.34
2022-11-10T10:10:05.475Z,101819.72
2022-11-10T10:13:12.452Z,101819.09
2022-11-10T10:16:15.223Z,101828.16
2022-11-10T10:19:14.919Z,101820.19
2022-11-10T10:22:34.191Z,101825.09
2022-11-10T10:25:24.233Z,101826.06
2022-11-10T10:28:21.625Z,101830.03
2022-11-10T10:31:19.083Z,101842.19
2022-11-10T10:34:13.292Z,101834.78
2022-11-10T10:37:00.777Z,101841.25
2022-11-10T10:39:51.849Z,101850.69
2022-11-10T10:42:39.893Z,101857.06
2022-11-10T10:45:30.955Z,101848.34
2022-11-10T10:48:30.356Z,101860.59
2022-11-10T10:51:30.845Z,101846.03
2022-11-10T10:54:29.833Z,101839.81
2022-11-10T10:57:23.466Z,101839.47
2022-11-10T11:00:22.012Z,101850.81
2022-11-10T11:03:22.931Z,101852.78
2022-11-10T11:06:21.578Z,101865.22
2022-11-10T11:09:16.637Z,101853.47
2022-11-10T11:12:07.284Z,101856.34
2022-11-10T11:15:14.250Z,101875.56
2022-11-10T11:18:03.602Z,101858.16
2022-11-10T11:21:00.997Z,101867.53
2022-11-10T11:24:06.835Z,101874.31
2022-11-10T11:27:01.585Z,101880.75
2022-11-10T11:30:09.904Z,101889.97
2022-11-10T11:33:17.118Z,101884.84
2022-11-10T11:36:17.382Z,101880.16
2022-11-10T11:39:17.417Z,101891.09
2022-11-10T11:42:16.422Z,101886.94
2022-11-10T11:45:17.891Z,101891.72
2022-11-10T11:48:44.865Z,101885.88
2022-11-10T11:51:41.310Z,101884.56
2022-11-10T11:54:33.714Z,101883.88
2022-11-10T11:57:38.688Z,101886.72
2022-11-10T12:00:31.236Z,101894.59
2022-11-10T12:03:39.926Z,101887.19
2022-11-10T12:06:42.661Z,101876.66
2022-11-10T12:09:41.029Z,101892.72
2022-11-10T12:12:58.847Z,101901.22
2022-11-10T12:15:54.284Z,101905.28
2022-11-10T12:18:51.016Z,101910.41
2022-11-10T12:21:48.333Z,101918.31
2022-11-10T12:24:53.023Z,101905.97
2022-11-10T12:27:46.167Z,101917.31
2022-11-10T12:30:35.560Z,101910.16
2022-11-10T12:33:34.769Z,101905.47
2022-11-10T12:36:23.550Z,101897.91
2022-11-10T12:39:18.641Z,101900.44
2022-11-10T12:42:09.158Z,101907.50
2022-11-10T12:45:01.182Z,101912.41
2022-11-10T12:47:49.729Z,101913.22
2022-11-10T12:50:45.946Z,101926.63
2022-11-10T12:53:36.573Z,101932.03
2022-11-10T12:56:31.197Z,101931.03
2022-11-10T12:59:34.389Z,101932.13
2022-11-10T13:02:31.109Z,101949.69
2022-11-10T13:05:37.474Z,101958.44
2022-11-10T13:08:34.592Z,101956.75
2022-11-10T13:11:31.102Z,101960.13
2022-11-10T13:14:25.811Z,101959.78
2022-11-10T13:17:52.818Z,101957.97
2022-11-10T13:20:52.364Z,101953.53
2022-11-10T13:24:19.965Z,101959.41
2022-11-10T13:27:13.398Z,101977.03
2022-11-10T13:30:01.602Z,101972.72
2022-11-10T13:32:49.599Z,101978.91
2022-11-10T13:35:55.539Z,101976.28
2022-11-10T13:38:45.837Z,101977.03
2022-11-10T13:41:35.640Z,101971.63
2022-11-10T13:44:27.912Z,101977.63
2022-11-10T13:47:48.361Z,101977.03
2022-11-10T13:50:49.980Z,101994.38
2022-11-10T13:53:45.833Z,101989.13
2022-11-10T13:56:52.207Z,102002.16
2022-11-10T13:59:50.432Z,101999.75
2022-11-10T14:02:49.971Z,101994.38
2022-11-10T14:06:07.287Z,101991.84
2022-11-10T14:08:59.948Z,101991.50
2022-11-10T14:11:51.164Z,101989.47
2022-11-10T14:14:52.373Z,101998.13
2022-11-10T14:17:45.337Z,101998.97
2022-11-10T14:20:45.018Z,101998.22
2022-11-10T14:23:37.910Z,101989.13
2022-11-10T14:26:31.374Z,101999.56
2022-11-10T14:29:38.452Z,101984.72
2022-11-10T14:32:27.977Z,101985.47
2022-11-10T14:35:22.635Z,101983.63
2022-11-10T14:38:21.117Z,101985.81
2022-11-10T14:41:18.534Z,101991.44
2022-11-10T14:44:08.848Z,101990.25
2022-11-10T14:46:57.288Z,101997.19
2022-11-10T14:49:46.593Z,101992.41
2022-11-10T14:52:38.631Z,101996.00
2022-11-10T14:55:30.291Z,102021.16
2022-11-10T14:58:24.440Z,102030.13
2022-11-10T15:01:26.444Z,102029.50
2022-11-10T15:04:16.468Z,102036.13
2022-11-10T15:07:07.009Z,102035.03
2022-11-10T15:10:14.318Z,102042.69
2022-11-10T15:13:04.922Z,102044.03
2022-11-10T15:15:53.550Z,102047.00
2022-11-10T15:18:41.417Z,102032.47
2022-11-10T15:21:34.039Z,102041.84
2022-11-10T15:24:25.923Z,102040.28
2022-11-10T15:27:23.050Z,102048.53
2022-11-10T15:30:24.420Z,102043.19
2022-11-10T15:33:12.542Z,102044.25
2022-11-10T15:36:17.024Z,102058.38
2022-11-10T15:39:20.000Z,102055.75
2022-11-10T15:42:16.096Z,102053.09
2022-11-10T15:45:03.877Z,102054.41
2022-11-10T15:47:51.555Z,102052.88
2022-11-10T15:50:39.576Z,102054.91
2022-11-10T15:53:31.033Z,102077.50
2022-11-10T15:56:21.822Z,102067.13
2022-11-10T15:59:12.737Z,102075.72
2022-11-10T16:02:00.996Z,102073.44
2022-11-10T16:04:52.423Z,102061.94
2022-11-10T16:07:42.197Z,102077.41
2022-11-10T16:10:30.439Z,102072.84
2022-11-10T16:13:22.191Z,102052.44
2022-11-10T16:16:14.677Z,102065.94
2022-11-10T16:19:02.600Z,102065.59
2022-11-10T16:21:50.110Z,102068.00
2022-11-10T16:24:37.932Z,102064.88
2022-11-10T16:27:25.754Z,102059.09
2022-11-10T16:30:15.777Z,102062.97
2022-11-10T16:33:04.758Z,102062.75
2022-11-10T16:35:54.030Z,102061.91
2022-11-10T16:38:41.603Z,102068.72
2022-11-10T16:41:29.412Z,102073.34
2022-11-10T16:44:22.735Z,102080.94
2022-11-10T16:47:18.906Z,102084.53
2022-11-10T16:50:24.874Z,102088.50
2022-11-10T16:53:17.177Z,102088.19
2022-11-10T16:56:05.122Z,102092.63
2022-11-10T16:58:54.498Z,102091.78
2022-11-10T17:01:45.396Z,102097.53
2022-11-10T17:04:33.001Z,102089.81
2022-11-10T17:07:24.500Z,102087.06
2022-11-10T17:10:15.813Z,102088.44
2022-11-10T17:13:03.850Z,102085.09
2022-11-10T17:15:53.562Z,102088.91
2022-11-10T17:18:41.661Z,102086.50
2022-11-10T17:21:33.243Z,102086.19
2022-11-10T17:24:23.011Z,102088.47
2022-11-10T17:27:11.949Z,102094.31
2022-11-10T17:29:59.674Z,102097.41
2022-11-10T17:33:06.116Z,102094.78
2022-11-10T17:35:54.706Z,102104.28
2022-11-10T17:38:42.628Z,102100.78
2022-11-10T17:41:31.887Z,102100.69
2022-11-10T17:44:20.782Z,102098.50
2022-11-10T17:47:08.485Z,102090.50
2022-11-10T17:49:55.911Z,102102.84
2022-11-10T17:52:43.986Z,102103.53
2022-11-10T17:55:34.443Z,102108.19
2022-11-10T17:58:24.237Z,102101.63
2022-11-10T18:01:21.992Z,102103.41
2022-11-10T18:04:12.857Z,102096.22
2022-11-10T18:07:00.633Z,102110.13
2022-11-10T18:09:49.034Z,102105.69
2022-11-10T18:12:36.786Z,102114.91
2022-11-10T18:15:25.963Z,102109.88
2022-11-10T18:18:14.698Z,102123.88
2022-11-10T18:21:02.504Z,102113.22
2022-11-10T18:23:49.982Z,102120.78
2022-11-10T18:26:37.737Z,102114.91
2022-11-10T18:29:25.183Z,102127.72
2022-11-10T18:32:14.244Z,102121.63
2022-11-10T18:35:01.828Z,102123.41
2022-11-10T18:37:49.500Z,102129.53
2022-11-10T18:40:36.864Z,102124.84
2022-11-10T18:43:24.604Z,102118.75
2022-11-10T18:46:12.584Z,102130.38
2022-11-10T18:49:01.835Z,102130.13
2022-11-10T18:51:49.419Z,102118.97
2022-11-10T18:54:37.102Z,102127.50
2022-11-10T18:57:24.671Z,102132.06
2022-11-10T19:00:13.992Z,102137.19
2022-11-10T19:03:01.419Z,102140.41
2022-11-10T19:05:58.215Z,102141.94
2022-11-10T19:08:46.904Z,102135.72
2022-11-10T19:11:35.601Z,102140.91
2022-11-10T19:14:23.442Z,102131.66
2022-11-10T19:17:11.660Z,102131.22
2022-11-10T19:19:59.375Z,102132.25
2022-11-10T19:22:48.247Z,102138.84
2022-11-10T19:25:35.858Z,102138.84
2022-11-10T19:28:23.657Z,102139.44
2022-11-10T19:31:14.143Z,102139.97
2022-11-10T19:34:01.825Z,102133.22
2022-11-10T19:36:49.813Z,102145.13
2022-11-10T19:39:38.804Z,102133.78
2022-11-10T19:42:26.612Z,102139.16
2022-11-10T19:45:15.424Z,102127.16
2022-11-10T19:48:02.904Z,102135.28
2022-11-10T19:50:55.293Z,102140.94
2022-11-10T19:53:43.841Z,102128.50
2022-11-10T19:56:35.529Z,102133.13
2022-11-10T19:59:23.071Z,102137.69
2022-11-10T20:02:13.344Z,102139.84
2022-11-10T20:05:17.282Z,102153.16
2022-11-10T20:08:12.379Z,102159.28
2022-11-10T20:11:04.919Z,102162.63
2022-11-10T20:13:56.203Z,102160.84
2022-11-10T20:16:44.032Z,102177.91
2022-11-10T20:19:32.939Z,102174.00
2022-11-10T20:22:22.154Z,102180.34
2022-11-10T20:25:10.153Z,102185.41
2022-11-10T20:27:58.655Z,102201.22
2022-11-10T20:30:47.733Z,102191.31
2022-11-10T20:33:36.161Z,102184.34
2022-11-10T20:36:26.841Z,102186.88
2022-11-10T20:39:14.601Z,102193.84
2022-11-10T20:42:02.054Z,102198.91
2022-11-10T20:44:49.611Z,102203.09
2022-11-10T20:47:38.812Z,102208.06
2022-11-10T20:50:26.523Z,102207.63
2022-11-10T20:53:14.473Z,102208.81
2022-11-10T20:56:02.645Z,102208.31
2022-11-10T20:58:52.242Z,102211.28
2022-11-10T21:01:40.187Z,102196.09
2022-11-10T21:04:29.432Z,102190.94
2022-11-10T21:07:17.235Z,102198.00
2022-11-10T21:10:05.471Z,102196.09
2022-11-10T21:12:53.233Z,102190.56
2022-11-10T21:15:41.541Z,102196.88
2022-11-10T21:18:30.752Z,102213.00
2022-11-10T21:21:26.295Z,102213.75
2022-11-10T21:24:13.964Z,102212.66
2022-11-10T21:27:01.612Z,102215.53
2022-11-10T21:29:49.137Z,102225.06
2022-11-10T21:32:36.730Z,102229.03
2022-11-10T21:35:24.368Z,102231.44
2022-11-10T21:38:15.069Z,102235.03
2022-11-10T21:41:02.596Z,102225.22
2022-11-10T21:43:50.148Z,102227.25
2022-11-10T21:46:37.660Z,102247.38
2022-11-10T21:49:25.127Z,102254.19
2022-11-10T21:52:12.540Z,102257.38
2022-11-10T21:55:01.545Z,102270.63
2022-11-10T21:57:49.506Z,102264.66
2022-11-10T22:00:36.953Z,102258.16
2022-11-10T22:03:25.110Z,102259.09
2022-11-10T22:06:14.891Z,102261.63
2022-11-10T22:09:02.774Z,102251.19
2022-11-10T22:12:08.938Z,102250.56
2022-11-10T22:15:14.096Z,102244.78
2022-11-10T22:18:19.858Z,102252.56
2022-11-10T22:21:09.389Z,102238.44
2022-11-10T22:24:14.668Z,102240.56
2022-11-10T22:27:05.096Z,102245.94
2022-11-10T22:29:52.914Z,102246.06
2022-11-10T22:32:42.462Z,102249.63
2022-11-10T22:35:44.895Z,102256.06
2022-11-10T22:38:34.919Z,102262.50
2022-11-10T22:41:39.784Z,102265.13
2022-11-10T22:44:29.021Z,102271.00
2022-11-10T22:47:16.678Z,102267.84
2022-11-10T22:50:04.359Z,102264.59
2022-11-10T22:52:52.179Z,102271.53
2022-11-10T22:55:39.808Z,102274.59
2022-11-10T22:58:27.488Z,102273.94
2022-11-10T23:01:16.440Z,102268.19
2022-11-10T23:04:04.763Z,102274.38
2022-11-10T23:06:52.666Z,102279.22
2022-11-10T23:09:40.271Z,102286.28
2022-11-10T23:12:27.650Z,102281.31
2022-11-10T23:15:15.260Z,102282.38
2022-11-10T23:18:06.833Z,102289.59
2022-11-10T23:20:59.251Z,102290.66
2022-11-10T23:23:48.206Z,102305.06
2022-11-10T23:26:35.869Z,102313.13
2022-11-10T23:29:23.375Z,102302.75
2022-11-10T23:32:10.832Z,102302.38
2022-11-10T23:34:59.692Z,102300.03
2022-11-10T23:37:47.299Z,102296.78
2022-11-10T23:40:34.820Z,102298.84
2022-11-10T23:43:22.752Z,102306.94
2022-11-10T23:46:10.683Z,102317.53
2022-11-10T23:48:58.446Z,102324.78
2022-11-10T23:51:47.422Z,102326.38
2022-11-10T23:54:35.311Z,102321.44
2022-11-10T23:57:22.762Z,102332.97
